Time;durP1;ratioP1;P1;durP2;ratioP2;P2;SDS_P1;SDS_P2;PMS_P1;PMS_P2;Temp;Humidity;BMP_temperature;BMP_pressure;BME280_temperature;BME280_humidity;BME280_pressure;Samples;Min_cycle;Max_cycle;Signal;HPM_P1;HPM_P2
2023/07/06 00:02:30;;;;;;;3.33;1.83;;;15.60;82.40;;;;;;5245553;28;20464;-44
2023/07/06 00:05:00;;;;;;;2.97;2.60;;;15.60;84.00;;;;;;5239567;28;20205;-44
2023/07/06 00:07:31;;;;;;;2.70;2.50;;;15.50;86.40;;;;;;5216081;28;20195;-43
2023/07/06 00:10:04;;;;;;;4.17;2.50;;;15.50;87.40;;;;;;5231656;28;20186;-43
2023/07/06 00:12:35;;;;;;;4.63;2.80;;;15.50;89.30;;;;;;5211875;28;20185;-43
2023/07/06 00:15:06;;;;;;;23.67;7.13;;;15.50;90.60;;;;;;5200439;28;20806;-43
2023/07/06 00:17:38;;;;;;;5.30;3.30;;;15.50;91.10;;;;;;5212365;28;20202;-43
2023/07/06 00:20:12;;;;;;;5.03;2.80;;;15.50;91.80;;;;;;5221409;28;20970;-43
2023/07/06 00:22:43;;;;;;;4.80;2.97;;;15.40;92.70;;;;;;5242322;28;20468;-44
2023/07/06 00:25:14;;;;;;;8.63;3.10;;;15.50;93.10;;;;;;5231762;28;20827;-43
2023/07/06 00:27:44;;;;;;;2.70;2.50;;;15.40;93.70;;;;;;5220974;28;20199;-42
2023/07/06 00:30:15;;;;;;;4.13;2.10;;;15.40;94.10;;;;;;5228174;28;20191;-42
2023/07/06 00:32:51;;;;;;;9.17;3.90;;;15.40;94.80;;;;;;5245622;28;20179;-43
2023/07/06 00:35:22;;;;;;;4.60;2.47;;;15.40;95.10;;;;;;5225206;28;20178;-43
2023/07/06 00:37:55;;;;;;;7.57;2.73;;;15.40;95.70;;;;;;5238967;28;20448;-43
2023/07/06 00:40:31;;;;;;;5.83;2.40;;;15.40;96.30;;;;;;5218850;28;20442;-43
2023/07/06 00:43:01;;;;;;;6.33;1.90;;;15.30;97.00;;;;;;5242381;28;20510;-44
2023/07/06 00:45:34;;;;;;;6.83;1.80;;;15.30;97.40;;;;;;5210197;28;20956;-43
2023/07/06 00:48:31;;;;;;;2.87;1.97;;;15.20;98.10;;;;;;5207478;28;20602;-42
2023/07/06 00:51:08;;;;;;;3.03;2.40;;;15.10;98.60;;;;;;5233893;28;20517;-42
2023/07/06 00:53:42;;;;;;;2.80;2.30;;;15.10;99.70;;;;;;5220337;28;20444;-42
2023/07/06 00:56:18;;;;;;;4.97;1.90;;;15.10;99.90;;;;;;5241130;28;20448;-43
2023/07/06 00:58:50;;;;;;;2.83;2.40;;;15.10;99.90;;;;;;5198472;28;20457;-43
2023/07/06 01:01:23;;;;;;;4.00;3.23;;;15.10;99.90;;;;;;5225547;28;20482;-43
2023/07/06 01:03:56;;;;;;;4.80;2.17;;;15.20;99.90;;;;;;5215729;28;20422;-43
2023/07/06 01:06:34;;;;;;;6.40;2.83;;;15.20;99.90;;;;;;5239248;28;20455;-43
2023/07/06 01:09:07;;;;;;;6.40;2.60;;;15.20;99.90;;;;;;5236032;28;20444;-43
2023/07/06 01:11:41;;;;;;;3.53;2.30;;;15.20;99.90;;;;;;5220645;28;20520;-43
2023/07/06 01:14:13;;;;;;;7.13;2.37;;;15.30;99.90;;;;;;5204602;28;20440;-43
2023/07/06 01:16:59;;;;;;;4.20;2.53;;;15.30;99.90;;;;;;5238847;28;20488;-43
2023/07/06 01:19:51;;;;;;;4.80;2.90;;;15.30;99.90;;;;;;5223644;28;20495;-43
2023/07/06 01:22:40;;;;;;;2.20;2.10;;;15.30;99.90;;;;;;5216063;28;20953;-43
2023/07/06 01:25:51;;;;;;;3.03;2.57;;;15.20;99.90;;;;;;5213210;28;20528;-43
2023/07/06 01:29:00;;;;;;;2.27;1.93;;;15.20;99.90;;;;;;5203620;28;20531;-43
2023/07/06 01:31:58;;;;;;;2.77;2.20;;;15.20;99.90;;;;;;5241159;28;20801;-43
2023/07/06 01:34:29;;;;;;;4.50;2.53;;;15.20;99.90;;;;;;5227990;28;20437;-42
2023/07/06 01:37:28;;;;;;;2.43;2.17;;;15.20;99.90;;;;;;5246946;28;20558;-42
2023/07/06 01:39:59;;;;;;;3.80;2.57;;;15.10;99.90;;;;;;5244424;28;20547;-45
2023/07/06 01:42:30;;;;;;;3.13;2.50;;;15.00;99.90;;;;;;5239028;28;20555;-42
2023/07/06 01:45:08;;;;;;;4.53;2.47;;;15.00;99.90;;;;;;5244348;28;20798;-44
2023/07/06 01:47:46;;;;;;;2.60;2.33;;;15.00;99.90;;;;;;5242483;28;20502;-42
2023/07/06 01:50:19;;;;;;;5.20;2.20;;;15.00;99.90;;;;;;5244204;28;20500;-42
2023/07/06 01:53:04;;;;;;;2.83;2.53;;;15.00;99.90;;;;;;5207709;28;20441;-42
2023/07/06 01:55:53;;;;;;;2.67;2.50;;;15.10;99.90;;;;;;5226758;28;20468;-43
2023/07/06 01:58:45;;;;;;;3.17;2.33;;;15.10;99.90;;;;;;5245636;28;20507;-44
2023/07/06 02:01:21;;;;;;;2.30;2.10;;;15.10;99.90;;;;;;5230279;28;20471;-44
2023/07/06 02:03:53;;;;;;;4.00;2.57;;;15.10;99.90;;;;;;5238460;28;20508;-43
2023/07/06 02:06:24;;;;;;;7.13;2.10;;;15.00;99.90;;;;;;5237486;28;20457;-42
2023/07/06 02:08:55;;;;;;;2.50;2.30;;;15.00;99.90;;;;;;5245559;28;20443;-41
2023/07/06 02:11:25;;;;;;;4.17;2.13;;;15.00;99.90;;;;;;5241292;28;20438;-41
2023/07/06 02:13:56;;;;;;;4.73;2.60;;;15.00;99.90;;;;;;5218749;28;20250;-42
2023/07/06 02:16:27;;;;;;;5.87;2.47;;;15.00;99.90;;;;;;5244901;28;20563;-42
2023/07/06 02:19:01;;;;;;;4.40;2.40;;;15.10;99.90;;;;;;5215829;28;20183;-44
2023/07/06 02:21:32;;;;;;;2.50;2.30;;;15.10;99.90;;;;;;5234947;28;20170;-42
2023/07/06 02:24:04;;;;;;;3.80;2.30;;;15.10;99.90;;;;;;5237968;28;20436;-42
2023/07/06 02:26:34;;;;;;;6.93;2.80;;;15.20;99.90;;;;;;5221564;28;20457;-43
2023/07/06 02:29:05;;;;;;;3.00;2.63;;;15.50;99.90;;;;;;5226405;28;20492;-43
2023/07/06 02:31:36;;;;;;;4.20;2.33;;;15.60;99.90;;;;;;5246040;28;20175;-44
2023/07/06 02:34:07;;;;;;;9.63;2.80;;;15.70;99.90;;;;;;5219889;28;20179;-43
2023/07/06 02:36:38;;;;;;;2.57;2.37;;;15.60;99.90;;;;;;5220778;28;20518;-43
2023/07/06 02:39:08;;;;;;;13.97;2.60;;;15.50;99.90;;;;;;5219204;28;20686;-43
2023/07/06 02:41:39;;;;;;;2.63;2.40;;;15.50;99.90;;;;;;5241188;28;20339;-43
2023/07/06 02:44:10;;;;;;;6.83;2.37;;;15.40;99.90;;;;;;5225536;28;20167;-43
2023/07/06 02:46:40;;;;;;;4.40;1.93;;;15.30;99.90;;;;;;5218481;28;20865;-43
2023/07/06 02:49:12;;;;;;;3.07;2.30;;;15.20;99.90;;;;;;5248155;28;20179;-44
2023/07/06 02:51:43;;;;;;;2.53;2.33;;;15.10;99.90;;;;;;5243569;28;20182;-41
2023/07/06 02:54:15;;;;;;;3.33;3.10;;;15.00;99.90;;;;;;5217209;28;20445;-43
2023/07/06 02:56:47;;;;;;;2.80;2.60;;;15.00;99.90;;;;;;5239807;28;20791;-42
2023/07/06 02:59:18;;;;;;;4.17;3.80;;;15.10;99.90;;;;;;5241730;28;21016;-43
2023/07/06 03:01:49;;;;;;;4.60;2.80;;;15.10;99.90;;;;;;5243574;28;20588;-44
2023/07/06 03:04:20;;;;;;;6.33;3.17;;;15.10;99.90;;;;;;5242390;28;20221;-42
2023/07/06 03:06:51;;;;;;;7.03;2.70;;;15.10;99.90;;;;;;5215493;28;20214;-42
2023/07/06 03:09:26;;;;;;;7.93;2.80;;;15.10;99.90;;;;;;5214095;28;20417;-43
2023/07/06 03:11:57;;;;;;;5.60;3.10;;;15.10;99.90;;;;;;5231161;28;20481;-45
2023/07/06 03:14:27;;;;;;;2.80;2.60;;;15.10;99.90;;;;;;5246523;28;20936;-43
2023/07/06 03:16:58;;;;;;;4.10;2.90;;;15.10;99.90;;;;;;5239942;28;20684;-42
2023/07/06 03:19:29;;;;;;;2.93;2.60;;;15.10;99.90;;;;;;5228735;28;20277;-43
2023/07/06 03:22:00;;;;;;;3.00;2.50;;;15.10;99.90;;;;;;5235405;28;20218;-45
2023/07/06 03:24:30;;;;;;;3.17;2.87;;;15.10;99.90;;;;;;5226756;28;20190;-43
2023/07/06 03:27:02;;;;;;;4.60;2.60;;;15.00;99.90;;;;;;5240630;28;20553;-43
2023/07/06 03:29:35;;;;;;;4.33;3.03;;;15.00;99.90;;;;;;5239807;28;20179;-43
2023/07/06 03:32:06;;;;;;;5.37;3.63;;;15.00;99.90;;;;;;5225771;28;20436;-43
2023/07/06 03:34:37;;;;;;;4.10;3.03;;;15.00;99.90;;;;;;5241624;28;20440;-43
2023/07/06 03:37:08;;;;;;;3.90;2.43;;;15.00;99.90;;;;;;5239131;28;20460;-43
2023/07/06 03:39:38;;;;;;;4.73;3.10;;;15.10;99.90;;;;;;5221849;28;20656;-43
2023/07/06 03:42:09;;;;;;;4.47;2.70;;;15.10;99.90;;;;;;5224759;28;20205;-43
2023/07/06 03:44:40;;;;;;;4.07;2.87;;;15.10;99.90;;;;;;5223057;28;20171;-43
2023/07/06 03:47:10;;;;;;;5.27;3.13;;;15.20;99.90;;;;;;5228777;28;20210;-43
2023/07/06 03:49:41;;;;;;;2.83;2.60;;;15.20;99.90;;;;;;5246932;28;20174;-43
2023/07/06 03:52:16;;;;;;;2.97;2.40;;;15.20;99.90;;;;;;5228189;28;20186;-43
2023/07/06 03:54:47;;;;;;;3.13;2.93;;;15.30;99.90;;;;;;5247414;28;20182;-43
2023/07/06 03:57:18;;;;;;;3.33;2.77;;;15.30;99.90;;;;;;5207003;28;20465;-43
2023/07/06 03:59:50;;;;;;;6.13;2.97;;;15.40;99.90;;;;;;5235485;28;20243;-43
2023/07/06 04:02:21;;;;;;;4.80;2.50;;;15.60;99.90;;;;;;5226118;28;20203;-43
2023/07/06 04:04:52;;;;;;;2.97;2.70;;;15.60;99.90;;;;;;5238138;28;20440;-42
2023/07/06 04:07:23;;;;;;;4.00;2.47;;;15.70;99.90;;;;;;5242008;28;20267;-44
2023/07/06 04:09:53;;;;;;;2.23;2.13;;;15.70;99.90;;;;;;5226808;28;20444;-42
2023/07/06 04:12:24;;;;;;;6.80;3.37;;;15.80;99.90;;;;;;5239823;28;20240;-43
2023/07/06 04:14:56;;;;;;;4.33;3.00;;;15.80;99.90;;;;;;5230945;28;20253;-43
2023/07/06 04:17:26;;;;;;;3.70;3.40;;;15.80;99.90;;;;;;5243602;28;20267;-43
2023/07/06 04:19:58;;;;;;;8.07;4.40;;;15.90;99.90;;;;;;5231127;28;20448;-43
2023/07/06 04:22:29;;;;;;;8.93;3.50;;;16.00;99.90;;;;;;5240441;28;20206;-43
2023/07/06 04:24:59;;;;;;;3.97;3.50;;;16.20;99.90;;;;;;5241825;28;20444;-43
2023/07/06 04:27:30;;;;;;;5.77;3.03;;;16.30;99.90;;;;;;5237481;28;20217;-44
2023/07/06 04:30:01;;;;;;;4.37;2.43;;;16.50;99.90;;;;;;5236270;28;20182;-44
2023/07/06 04:32:33;;;;;;;5.67;3.33;;;16.60;99.90;;;;;;5236419;28;20194;-44
2023/07/06 04:35:05;;;;;;;2.50;2.33;;;16.80;99.90;;;;;;5225361;28;20181;-43
2023/07/06 04:37:36;;;;;;;66.63;8.63;;;17.10;99.90;;;;;;5213042;28;20603;-43
2023/07/06 04:40:12;;;;;;;2.80;2.30;;;17.50;99.90;;;;;;5224088;28;20527;-43
2023/07/06 04:42:45;;;;;;;3.97;2.03;;;17.90;99.90;;;;;;5223461;28;20510;-43
2023/07/06 04:45:17;;;;;;;2.77;2.63;;;18.20;99.10;;;;;;5238194;28;20428;-43
2023/07/06 04:47:51;;;;;;;2.53;2.33;;;18.80;97.90;;;;;;5217836;28;20456;-43
2023/07/06 04:50:24;;;;;;;6.97;2.97;;;19.10;95.90;;;;;;5212725;28;21066;-42
2023/07/06 04:52:58;;;;;;;2.37;2.17;;;19.50;95.00;;;;;;5220619;28;20994;-43
2023/07/06 04:55:31;;;;;;;2.57;2.43;;;20.00;92.90;;;;;;5221763;28;20453;-43
2023/07/06 04:58:05;;;;;;;4.37;2.30;;;20.90;90.70;;;;;;5238073;28;21048;-43
2023/07/06 05:00:39;;;;;;;3.73;2.40;;;21.80;84.90;;;;;;5235563;28;20522;-43
2023/07/06 05:03:10;;;;;;;3.90;2.30;;;22.30;79.70;;;;;;5220306;28;20526;-43
2023/07/06 05:05:45;;;;;;;3.03;2.33;;;22.40;76.70;;;;;;5239986;28;20436;-42
2023/07/06 05:08:19;;;;;;;2.40;2.20;;;22.20;75.20;;;;;;5235912;28;20488;-42
2023/07/06 05:10:51;;;;;;;5.27;2.13;;;22.10;74.60;;;;;;5239317;28;20443;-42
2023/07/06 05:13:22;;;;;;;2.30;2.10;;;22.20;74.40;;;;;;5222928;28;20786;-43
2023/07/06 05:15:53;;;;;;;4.00;2.90;;;22.40;72.00;;;;;;5238172;28;20441;-43
2023/07/06 05:18:24;;;;;;;3.93;2.80;;;22.10;72.30;;;;;;5227585;28;20547;-43
2023/07/06 05:20:57;;;;;;;2.33;1.83;;;22.00;71.80;;;;;;5236372;28;20183;-43
2023/07/06 05:23:28;;;;;;;2.00;1.90;;;22.20;71.50;;;;;;5227709;28;20670;-43
2023/07/06 05:26:02;;;;;;;2.23;2.13;;;22.50;70.50;;;;;;5222803;28;20431;-43
2023/07/06 05:28:33;;;;;;;3.53;2.23;;;22.60;69.40;;;;;;5239421;28;20436;-43
2023/07/06 05:31:04;;;;;;;2.63;2.40;;;22.60;67.70;;;;;;5236064;28;20515;-42
2023/07/06 05:33:34;;;;;;;4.90;2.13;;;23.00;67.20;;;;;;5217946;28;20186;-43
2023/07/06 05:36:05;;;;;;;2.10;2.00;;;22.90;65.40;;;;;;5221347;28;20179;-42
2023/07/06 05:38:36;;;;;;;1.50;1.40;;;23.20;64.80;;;;;;5219130;28;20245;-43
2023/07/06 05:41:06;;;;;;;6.63;2.80;;;24.50;63.20;;;;;;5227538;28;20186;-43
2023/07/06 05:43:37;;;;;;;1.93;1.73;;;24.90;60.20;;;;;;5234293;28;20206;-43
2023/07/06 05:46:08;;;;;;;2.90;2.10;;;25.20;58.00;;;;;;5234531;28;20182;-44
2023/07/06 05:48:38;;;;;;;2.77;2.53;;;26.00;55.60;;;;;;5215415;28;20228;-43
2023/07/06 05:51:09;;;;;;;1.53;1.43;;;27.40;52.10;;;;;;5228458;28;20189;-44
2023/07/06 05:53:40;;;;;;;2.07;1.97;;;28.30;49.10;;;;;;5220425;28;20182;-43
2023/07/06 05:56:11;;;;;;;3.50;2.03;;;28.70;46.80;;;;;;5238317;28;20244;-43
2023/07/06 05:58:42;;;;;;;8.33;1.90;;;29.90;44.90;;;;;;5218989;28;20578;-43
2023/07/06 06:01:13;;;;;;;2.20;1.93;;;30.80;42.90;;;;;;5213639;28;20448;-44
2023/07/06 06:03:45;;;;;;;4.77;1.90;;;31.60;40.20;;;;;;5235139;28;21880;-43
2023/07/06 06:06:15;;;;;;;1.70;1.60;;;32.50;39.00;;;;;;5236610;28;20173;-43
2023/07/06 06:08:47;;;;;;;1.77;1.50;;;33.20;37.00;;;;;;5234004;28;20440;-43
2023/07/06 06:11:19;;;;;;;4.73;2.40;;;33.70;35.70;;;;;;5218043;28;20194;-43
2023/07/06 06:13:49;;;;;;;3.43;1.60;;;33.70;34.60;;;;;;5213915;28;20497;-43
2023/07/06 06:16:20;;;;;;;2.50;1.73;;;33.10;33.90;;;;;;5215178;28;20465;-44
2023/07/06 06:18:51;;;;;;;2.83;2.00;;;33.00;34.20;;;;;;5235457;28;20636;-49
2023/07/06 06:21:21;;;;;;;1.97;1.80;;;32.10;34.70;;;;;;5238198;28;20638;-44
2023/07/06 06:23:53;;;;;;;4.00;2.03;;;32.00;35.00;;;;;;5219855;28;20318;-44
2023/07/06 06:26:25;;;;;;;1.93;1.67;;;32.90;34.30;;;;;;5245825;28;20807;-44
2023/07/06 06:28:59;;;;;;;2.97;1.40;;;33.50;33.60;;;;;;5232128;28;20433;-42
2023/07/06 06:31:30;;;;;;;1.73;1.63;;;34.50;32.50;;;;;;5218061;28;20432;-43
2023/07/06 06:34:01;;;;;;;5.70;1.80;;;34.80;31.60;;;;;;5216678;28;20444;-43
2023/07/06 06:36:31;;;;;;;3.80;2.20;;;34.70;30.40;;;;;;5230514;28;20519;-42
2023/07/06 06:39:04;;;;;;;2.30;2.20;;;34.50;30.50;;;;;;5220555;28;20263;-44
2023/07/06 06:41:38;;;;;;;1.97;1.47;;;33.70;31.30;;;;;;5215967;28;20178;-43
2023/07/06 06:44:11;;;;;;;3.40;1.70;;;33.70;31.60;;;;;;5237480;28;20450;-44
2023/07/06 06:46:43;;;;;;;1.30;1.23;;;33.80;31.50;;;;;;5238524;28;20510;-44
2023/07/06 06:49:14;;;;;;;1.67;1.57;;;33.70;31.30;;;;;;5240759;28;20186;-43
2023/07/06 06:51:45;;;;;;;2.77;1.50;;;34.00;30.40;;;;;;5224457;28;20182;-42
2023/07/06 06:54:15;;;;;;;11.70;1.63;;;33.70;29.90;;;;;;5240170;28;20182;-44
2023/07/06 06:56:46;;;;;;;2.17;1.97;;;34.50;30.10;;;;;;5237144;28;20204;-43
2023/07/06 06:59:17;;;;;;;1.80;1.30;;;34.50;29.80;;;;;;5240610;28;20268;-44
2023/07/06 07:01:50;;;;;;;2.30;2.10;;;35.00;29.60;;;;;;5222735;28;20213;-45
2023/07/06 07:04:21;;;;;;;1.37;1.27;;;34.90;28.90;;;;;;5221106;28;20217;-44
2023/07/06 07:06:51;;;;;;;1.70;1.30;;;34.00;29.80;;;;;;5218629;28;20729;-43
2023/07/06 07:09:23;;;;;;;1.77;1.10;;;34.10;29.60;;;;;;5234579;28;20198;-44
2023/07/06 07:11:54;;;;;;;2.40;1.30;;;34.40;29.40;;;;;;5243276;28;20228;-44
2023/07/06 07:14:24;;;;;;;2.23;2.03;;;34.70;29.10;;;;;;5237597;28;20191;-44
2023/07/06 07:16:55;;;;;;;1.70;1.60;;;35.60;28.30;;;;;;5218800;28;20201;-44
2023/07/06 07:19:28;;;;;;;1.30;1.20;;;36.00;28.20;;;;;;5217473;28;20284;-43
2023/07/06 07:22:00;;;;;;;1.00;1.00;;;36.80;27.20;;;;;;5224990;28;20592;-44
2023/07/06 07:24:32;;;;;;;2.20;1.17;;;37.00;26.30;;;;;;5238099;28;20174;-44
2023/07/06 07:27:04;;;;;;;1.30;1.27;;;36.30;26.70;;;;;;5223006;28;20229;-45
2023/07/06 07:29:36;;;;;;;3.60;1.10;;;36.60;26.10;;;;;;5237770;28;20181;-44
2023/07/06 07:32:07;;;;;;;2.47;1.30;;;35.60;26.60;;;;;;5225355;28;20190;-45
2023/07/06 07:34:38;;;;;;;0.83;0.83;;;35.20;27.30;;;;;;5226224;28;20189;-44
2023/07/06 07:37:10;;;;;;;2.77;1.20;;;34.40;27.80;;;;;;5222494;28;20205;-44
2023/07/06 07:39:41;;;;;;;5.73;1.33;;;35.20;27.80;;;;;;5219422;28;20659;-44
2023/07/06 07:42:13;;;;;;;2.50;1.50;;;36.30;26.60;;;;;;5210477;28;20208;-44
2023/07/06 07:44:44;;;;;;;1.20;1.20;;;36.50;26.40;;;;;;5219258;28;20214;-44
2023/07/06 07:47:18;;;;;;;2.03;1.30;;;36.30;26.00;;;;;;5236530;28;20263;-44
2023/07/06 07:49:49;;;;;;;1.00;1.00;;;36.30;26.40;;;;;;5232584;28;20191;-45
2023/07/06 07:52:20;;;;;;;1.75;1.10;;;36.20;26.20;;;;;;5225584;28;20244;-44
2023/07/06 07:54:53;;;;;;;3.53;1.30;;;36.30;25.70;;;;;;5225945;28;20205;-45
2023/07/06 07:57:24;;;;;;;3.57;1.20;;;35.40;26.80;;;;;;5230253;28;20244;-44
2023/07/06 07:59:55;;;;;;;3.63;1.37;;;34.70;27.50;;;;;;5235916;28;20609;-44
2023/07/06 08:02:25;;;;;;;1.30;1.30;;;35.40;27.50;;;;;;5213042;28;20226;-44
2023/07/06 08:04:57;;;;;;;1.33;1.23;;;36.20;27.20;;;;;;5231343;28;20694;-44
2023/07/06 08:07:29;;;;;;;4.55;1.63;;;36.30;26.70;;;;;;5236337;28;20273;-45
2023/07/06 08:10:00;;;;;;;1.55;1.45;;;36.60;26.50;;;;;;5237640;28;20596;-45
2023/07/06 08:12:31;;;;;;;1.60;1.30;;;36.50;26.10;;;;;;5232140;28;20182;-44
2023/07/06 08:15:02;;;;;;;1.23;1.10;;;33.90;27.80;;;;;;5235816;28;20186;-45
2023/07/06 08:17:32;;;;;;;3.03;1.27;;;32.90;28.70;;;;;;5236474;28;20204;-43
2023/07/06 08:20:11;;;;;;;2.53;1.80;;;32.80;29.20;;;;;;5234744;28;20268;-45
2023/07/06 08:22:41;;;;;;;3.23;1.40;;;33.50;28.60;;;;;;5236541;28;20210;-44
2023/07/06 08:25:12;;;;;;;1.17;0.93;;;32.40;29.20;;;;;;5230993;28;20240;-44
2023/07/06 08:27:43;;;;;;;3.30;1.60;;;32.90;29.50;;;;;;5233410;28;20603;-45
2023/07/06 08:30:14;;;;;;;1.20;1.20;;;34.30;28.40;;;;;;5217865;28;20218;-44
2023/07/06 08:32:48;;;;;;;1.03;1.03;;;35.60;27.50;;;;;;5235714;28;20185;-44
2023/07/06 08:35:19;;;;;;;1.60;1.60;;;36.70;26.50;;;;;;5221350;28;20186;-43
2023/07/06 08:37:50;;;;;;;2.83;1.23;;;36.20;26.70;;;;;;5234463;28;20371;-43
2023/07/06 08:40:28;;;;;;;1.17;1.07;;;33.80;28.20;;;;;;5235971;28;20190;-44
2023/07/06 08:43:00;;;;;;;1.70;0.80;;;33.70;29.30;;;;;;5219191;28;20254;-44
2023/07/06 08:45:40;;;;;;;2.57;1.50;;;34.30;29.20;;;;;;5232911;28;20653;-44
2023/07/06 08:48:18;;;;;;;0.97;0.97;;;34.60;28.40;;;;;;5233455;28;20223;-44
2023/07/06 08:50:57;;;;;;;1.00;1.00;;;32.90;29.20;;;;;;5215367;28;20205;-43
2023/07/06 08:53:32;;;;;;;1.20;1.00;;;31.50;30.60;;;;;;5210241;28;20211;-44
2023/07/06 08:56:08;;;;;;;1.27;1.27;;;31.40;31.40;;;;;;5229984;28;20193;-44
2023/07/06 08:58:42;;;;;;;1.47;1.23;;;30.20;32.30;;;;;;5237556;28;20432;-44
2023/07/06 09:01:17;;;;;;;1.27;1.27;;;28.70;35.00;;;;;;5235088;28;20441;-43
2023/07/06 09:03:56;;;;;;;1.63;1.10;;;27.70;36.20;;;;;;5232467;28;20510;-43
2023/07/06 09:06:28;;;;;;;1.40;1.30;;;27.00;37.40;;;;;;5237237;28;20445;-44
2023/07/06 09:09:01;;;;;;;2.10;1.90;;;26.20;37.90;;;;;;5236099;28;20440;-45
2023/07/06 09:11:33;;;;;;;1.47;1.37;;;25.70;39.40;;;;;;5223405;28;20440;-43
2023/07/06 09:14:13;;;;;;;2.73;1.37;;;25.60;39.90;;;;;;5233338;28;20453;-43
2023/07/06 09:16:55;;;;;;;1.10;1.10;;;25.70;40.00;;;;;;5234018;28;20591;-44
2023/07/06 09:19:26;;;;;;;1.80;1.30;;;25.70;39.80;;;;;;5217612;28;20450;-44
2023/07/06 09:21:56;;;;;;;2.93;1.23;;;25.30;40.10;;;;;;5208741;28;20448;-43
2023/07/06 09:24:27;;;;;;;4.07;1.40;;;24.90;40.70;;;;;;5241185;28;20436;-43
2023/07/06 09:26:58;;;;;;;1.37;1.27;;;24.10;41.80;;;;;;5240039;28;20201;-44
2023/07/06 09:29:32;;;;;;;2.40;2.20;;;24.20;42.40;;;;;;5235809;28;20519;-45
2023/07/06 09:32:20;;;;;;;3.23;1.70;;;24.80;42.30;;;;;;5239845;28;20432;-44
2023/07/06 09:34:55;;;;;;;1.30;1.30;;;25.20;41.60;;;;;;5217900;28;20805;-43
2023/07/06 09:37:26;;;;;;;3.43;1.20;;;25.40;41.70;;;;;;5225761;28;20580;-43
2023/07/06 09:40:06;;;;;;;8.30;2.30;;;25.70;41.00;;;;;;5233503;28;20519;-45
2023/07/06 09:42:37;;;;;;;1.37;1.37;;;26.10;40.40;;;;;;5224219;28;20831;-45
2023/07/06 09:45:34;;;;;;;9.13;2.00;;;26.20;39.80;;;;;;5234042;28;20421;-44
2023/07/06 09:48:12;;;;;;;1.77;1.67;;;25.90;39.40;;;;;;5238102;28;20248;-44
2023/07/06 09:50:48;;;;;;;4.10;2.60;;;25.30;40.20;;;;;;5214483;28;20425;-43
2023/07/06 09:53:30;;;;;;;3.80;3.27;;;25.10;40.70;;;;;;5219046;28;20452;-44
2023/07/06 09:56:03;;;;;;;4.83;1.73;;;24.80;41.50;;;;;;5236100;28;20456;-44
2023/07/06 09:58:34;;;;;;;1.43;1.33;;;24.90;42.30;;;;;;5231124;28;20529;-44
2023/07/06 10:01:22;;;;;;;1.30;1.30;;;25.00;42.00;;;;;;5236514;28;20440;-43
2023/07/06 10:04:11;;;;;;;2.23;2.13;;;25.10;41.90;;;;;;5236072;28;20867;-44
2023/07/06 10:06:55;;;;;;;1.63;1.53;;;24.90;41.10;;;;;;5227524;28;20452;-44
2023/07/06 10:09:31;;;;;;;2.23;2.03;;;24.80;41.10;;;;;;5233420;28;20448;-44
2023/07/06 10:12:15;;;;;;;3.10;2.00;;;24.70;41.50;;;;;;5229195;28;20452;-44
2023/07/06 10:14:52;;;;;;;1.23;1.13;;;25.20;41.90;;;;;;5245328;28;20860;-44
2023/07/06 10:17:34;;;;;;;3.20;2.93;;;25.60;40.70;;;;;;5212229;28;21071;-44
2023/07/06 10:20:18;;;;;;;1.93;1.83;;;25.60;40.60;;;;;;5240063;28;20914;-44
2023/07/06 10:23:02;;;;;;;6.57;2.13;;;25.60;40.90;;;;;;5237551;28;20457;-45
2023/07/06 10:25:50;;;;;;;1.80;1.07;;;25.40;40.50;;;;;;5233620;28;20438;-44
2023/07/06 10:28:28;;;;;;;3.60;1.50;;;25.20;41.30;;;;;;5236340;28;20466;-45
2023/07/06 10:31:03;;;;;;;4.60;1.50;;;25.10;41.60;;;;;;5216776;28;21045;-43
2023/07/06 10:33:43;;;;;;;1.57;1.40;;;25.00;41.20;;;;;;5238874;28;20479;-45
2023/07/06 10:36:15;;;;;;;1.20;1.20;;;25.00;41.50;;;;;;5217655;28;20441;-44
2023/07/06 10:38:48;;;;;;;2.33;2.17;;;24.80;41.20;;;;;;5236282;28;20417;-44
2023/07/06 10:41:27;;;;;;;1.70;1.60;;;24.70;41.80;;;;;;5221101;28;20425;-45
2023/07/06 10:44:01;;;;;;;2.50;2.40;;;24.90;42.20;;;;;;5236480;28;20468;-43
2023/07/06 10:46:35;;;;;;;1.73;1.63;;;25.10;41.80;;;;;;5219449;28;20491;-45
2023/07/06 10:49:20;;;;;;;1.80;1.70;;;25.20;42.10;;;;;;5238407;28;20524;-44
2023/07/06 10:51:55;;;;;;;1.87;1.77;;;25.10;41.80;;;;;;5237965;28;20753;-44
2023/07/06 10:54:32;;;;;;;1.63;1.57;;;25.10;42.10;;;;;;5238548;28;20416;-44
2023/07/06 10:57:11;;;;;;;1.53;1.53;;;24.90;42.00;;;;;;5239570;28;20518;-44
2023/07/06 10:59:47;;;;;;;2.07;1.90;;;24.10;42.10;;;;;;5239233;28;20944;-44
2023/07/06 11:02:32;;;;;;;5.53;1.80;;;24.00;42.80;;;;;;5236315;28;20862;-44
2023/07/06 11:05:11;;;;;;;2.40;1.90;;;24.50;43.20;;;;;;5233579;28;20438;-44
2023/07/06 11:07:52;;;;;;;1.97;1.87;;;24.90;42.10;;;;;;5238981;28;20823;-44
2023/07/06 11:10:36;;;;;;;3.70;2.47;;;25.00;41.00;;;;;;5221968;28;20433;-44
2023/07/06 11:13:09;;;;;;;2.03;1.93;;;25.20;40.80;;;;;;5240189;28;20945;-49
2023/07/06 11:15:56;;;;;;;3.87;3.33;;;25.40;40.90;;;;;;5240284;28;20437;-44
2023/07/06 11:18:44;;;;;;;2.20;2.10;;;25.40;40.20;;;;;;5236510;28;20474;-45
2023/07/06 11:21:24;;;;;;;1.90;1.50;;;25.00;41.50;;;;;;5215238;28;20440;-44
2023/07/06 11:24:02;;;;;;;1.73;1.70;;;24.90;41.90;;;;;;5232883;28;20467;-45
2023/07/06 11:26:43;;;;;;;1.20;1.10;;;25.00;42.00;;;;;;5230332;28;20455;-44
2023/07/06 11:29:15;;;;;;;2.47;1.93;;;25.00;41.90;;;;;;5215326;28;20441;-45
2023/07/06 11:31:51;;;;;;;2.63;2.43;;;25.10;42.00;;;;;;5235287;28;20805;-43
2023/07/06 11:34:44;;;;;;;3.43;3.10;;;25.20;41.30;;;;;;5237255;28;20429;-44
2023/07/06 11:37:42;;;;;;;3.03;1.60;;;25.40;40.80;;;;;;5233553;28;20469;-43
2023/07/06 11:40:48;;;;;;;5.10;1.77;;;25.60;40.50;;;;;;5218830;28;20428;-45
2023/07/06 11:43:26;;;;;;;1.50;1.50;;;25.60;40.50;;;;;;5239540;28;20552;-45
2023/07/06 11:46:36;;;;;;;1.80;1.67;;;25.50;40.40;;;;;;5238446;28;20435;-45
2023/07/06 11:49:29;;;;;;;3.40;1.97;;;25.50;40.10;;;;;;5218988;28;20956;-45
2023/07/06 11:52:05;;;;;;;5.83;2.07;;;25.00;40.70;;;;;;5232451;28;20532;-44
2023/07/06 11:57:43;;;;;;;1.53;1.50;;;24.70;41.70;;;;;;5236049;28;20448;-45
2023/07/06 12:00:37;;;;;;;2.17;1.97;;;24.80;42.20;;;;;;5213859;28;20449;-44
2023/07/06 12:03:09;;;;;;;2.33;2.23;;;24.70;42.30;;;;;;5212120;28;20467;-43
2023/07/06 12:05:45;;;;;;;3.83;2.57;;;24.70;42.30;;;;;;5222070;28;20498;-44
2023/07/06 12:08:27;;;;;;;2.90;2.70;;;24.70;42.00;;;;;;5219914;28;20483;-44
2023/07/06 12:11:01;;;;;;;3.90;2.20;;;24.50;42.50;;;;;;5239840;28;20432;-44
2023/07/06 12:13:39;;;;;;;2.00;1.90;;;24.50;42.10;;;;;;5213779;28;20491;-44
2023/07/06 12:16:13;;;;;;;1.70;1.60;;;24.50;41.40;;;;;;5215980;28;20436;-44
2023/07/06 12:18:47;;;;;;;2.37;2.23;;;24.60;41.30;;;;;;5219909;28;20448;-44
2023/07/06 12:21:28;;;;;;;1.27;1.27;;;24.70;41.70;;;;;;5217661;28;20937;-44
2023/07/06 12:24:04;;;;;;;1.37;1.27;;;24.80;41.70;;;;;;5230160;28;20464;-44
2023/07/06 12:26:42;;;;;;;1.50;1.50;;;25.10;41.60;;;;;;5234426;28;20445;-45
2023/07/06 12:29:15;;;;;;;1.80;1.70;;;25.30;41.80;;;;;;5230878;28;20920;-43
2023/07/06 12:31:47;;;;;;;5.47;1.80;;;25.30;41.30;;;;;;5231885;28;20452;-45
2023/07/06 12:34:24;;;;;;;2.07;1.97;;;25.10;40.40;;;;;;5218831;28;20433;-44
2023/07/06 12:36:59;;;;;;;3.27;2.10;;;25.00;41.20;;;;;;5237668;28;20455;-44
2023/07/06 12:39:40;;;;;;;2.63;1.50;;;25.00;41.20;;;;;;5235786;28;20424;-44
2023/07/06 12:42:12;;;;;;;2.50;1.97;;;24.30;41.00;;;;;;5233935;28;20452;-44
2023/07/06 12:44:50;;;;;;;1.17;1.13;;;24.00;41.80;;;;;;5237954;28;21642;-44
2023/07/06 12:47:37;;;;;;;1.10;1.00;;;23.90;41.60;;;;;;5222572;28;20468;-44
2023/07/06 12:50:25;;;;;;;1.80;1.17;;;23.90;41.90;;;;;;5212808;28;20768;-45
2023/07/06 12:53:14;;;;;;;2.37;2.27;;;23.50;41.40;;;;;;5219940;28;20437;-44
2023/07/06 12:55:46;;;;;;;1.40;1.30;;;23.50;41.90;;;;;;5213196;28;20861;-44
2023/07/06 12:58:26;;;;;;;2.33;2.17;;;23.60;42.00;;;;;;5238711;28;20448;-43
2023/07/06 13:01:04;;;;;;;1.97;1.83;;;23.80;42.80;;;;;;5217618;28;20948;-44
2023/07/06 13:04:08;;;;;;;2.23;1.57;;;23.80;42.90;;;;;;5234367;28;20457;-43
2023/07/06 13:06:43;;;;;;;1.23;1.23;;;23.80;42.10;;;;;;5196776;28;21209;-43
2023/07/06 13:09:18;;;;;;;3.70;1.90;;;24.10;41.80;;;;;;5233237;28;20876;-44
2023/07/06 13:11:55;;;;;;;3.70;3.23;;;24.50;40.50;;;;;;5244368;28;20443;-44
2023/07/06 13:14:34;;;;;;;2.70;2.50;;;24.80;39.40;;;;;;5231654;28;20429;-44
2023/07/06 13:17:13;;;;;;;1.50;1.50;;;25.00;39.50;;;;;;5229226;28;20444;-44
2023/07/06 13:19:45;;;;;;;1.10;1.07;;;25.10;39.10;;;;;;5210536;28;20491;-44
2023/07/06 13:22:16;;;;;;;1.47;1.37;;;25.10;38.90;;;;;;5219835;28;20475;-45
2023/07/06 13:24:47;;;;;;;4.20;1.20;;;25.30;37.10;;;;;;5242248;28;20425;-44
2023/07/06 13:27:20;;;;;;;1.10;1.10;;;25.10;36.30;;;;;;5218025;28;20205;-45
2023/07/06 13:29:50;;;;;;;2.73;1.47;;;25.10;36.70;;;;;;5213428;28;20877;-44